Wheeler Sack Army Air Field
KGTB : now visible

Airfield :











YOU CAN JOIN US ON...

 
LOGIN :

Register | Disclaimer

   EN    FR    IT 

 









Legend :    VFR   Marginal VFR   IFR   Intensive IFR   Very Intensive IFR
Visi :
Ceiling :
>= 8 km
>= 3000ft
5 to 8 km
1000 to 3000 ft
1500m to 5 km
500 to 1000 ft
800 to 1500m
200 to 500 ft
< 800m
< 200 ft
Symbols :   Thunderstorms  Fog  Heavy snow  Heavy precipitations  Wind > 20 kt






- Airport Elevation : 688 ft


KGTB - Wheeler Sack Army Air Field

CURRENT METAR :
  • 130955Z AUTO 17003KT 10SM SCT110 20/18 A3012 RMK AO2 SLP195 T01970183 FZRANO $

EXPIRED METARs :
  • 130855Z AUTO 00000KT 10SM BKN130 20/18 A3011 RMK AO2 SLP192 T02030184 53003 FZRANO $
  • 130755Z AUTO 07003KT 10SM BKN130 20/18 A3010 RMK AO2 SLP188 T02030182 FZRANO $
  • 130655Z AUTO 22003KT 10SM FEW036 SCT050 21/18 A3010 RMK AO2 SLP188 T02110181 FZRANO $
  • 130555Z AUTO 16004KT 10SM BKN170 21/18 A3010 RMK AO2 SLP189 T02110179 10249 20193 56007
  • 130455Z AUTO 15004KT 10SM CLR 21/18 A3011 RMK AO2 SLP192 T02060182 402780193

TAF TAF KGTB
Valid from the 13 at 01:00 until the 14 at 07:00 UTC


130100Z 1301/1407 VRB06KT 9999 SKC QNH3011INS
BECMG 1313/1314 VRB06KT 9999 FEW150 QNH3016INS TX26/1318Z TN18/1310Z LAST NO AMDS AFT 1301 NEXT 1501
KZBW FIR / North America



MET'MAP, your aeronautical weather chart ! - Copyright ORBIFLY December 2007 - Disclaimer

ORBIFLY MET'MAP TEAM :

Programming & Development : Alexandra Zaïnal
Original concept : Baudouin d'Aumeries
Technical & hardware support : Manuel Goepfert
Assistance : Marc-Olivier Méhu




SOURCES & CREDITS :

   NOAA       Earth
Advisory